createdAt,value
2023-04-25T00:00:02.414Z,1.95
2023-04-25T00:01:02.323Z,1.96
2023-04-25T00:02:02.225Z,1.90
2023-04-25T00:03:02.248Z,1.94
2023-04-25T00:04:02.106Z,1.90
2023-04-25T00:05:02.138Z,1.92
2023-04-25T00:06:01.884Z,1.93
2023-04-25T00:07:01.786Z,1.90
2023-04-25T00:08:01.744Z,1.88
2023-04-25T00:09:01.679Z,1.90
2023-04-25T00:10:01.607Z,1.89
2023-04-25T00:11:01.562Z,1.87
2023-04-25T00:12:01.496Z,1.88
2023-04-25T00:13:01.420Z,1.91
2023-04-25T00:14:01.379Z,1.90
2023-04-25T00:15:01.397Z,1.85
2023-04-25T00:16:01.307Z,1.88
2023-04-25T00:17:01.207Z,1.89
2023-04-25T00:18:01.196Z,1.86
2023-04-25T00:19:01.097Z,1.86
2023-04-25T00:20:01.067Z,1.87
2023-04-25T00:21:00.985Z,1.86
2023-04-25T00:22:00.943Z,1.85
2023-04-25T00:23:00.884Z,1.85
2023-04-25T00:24:00.817Z,1.86
2023-04-25T00:25:00.767Z,1.85
2023-04-25T00:26:00.734Z,1.85
2023-04-25T00:27:00.653Z,1.86
2023-04-25T00:28:00.610Z,1.80
2023-04-25T00:29:00.548Z,1.83
2023-04-25T00:30:00.493Z,1.84
2023-04-25T00:31:00.525Z,1.83
2023-04-25T00:32:00.551Z,1.82
2023-04-25T00:33:00.350Z,1.82
2023-04-25T00:34:00.261Z,1.80
2023-04-25T00:35:00.222Z,1.81
2023-04-25T00:36:00.171Z,1.83
2023-04-25T00:37:00.146Z,1.82
2023-04-25T00:38:00.100Z,1.82
2023-04-25T00:39:00.007Z,1.80
2023-04-25T00:39:59.959Z,1.83
2023-04-25T00:40:59.897Z,1.81
2023-04-25T00:41:59.861Z,1.80
2023-04-25T00:42:59.810Z,1.81
2023-04-25T00:43:59.756Z,1.78
2023-04-25T00:44:59.701Z,1.79
2023-04-25T00:45:59.651Z,1.80
2023-04-25T00:46:59.726Z,1.79
2023-04-25T00:47:59.636Z,1.78
2023-04-25T00:48:59.493Z,1.77
2023-04-25T00:49:59.446Z,1.75
2023-04-25T00:50:59.391Z,1.79
2023-04-25T00:51:59.351Z,1.78
2023-04-25T00:52:59.345Z,1.74
2023-04-25T00:53:59.241Z,1.76
2023-04-25T00:54:59.198Z,1.75
2023-04-25T00:55:59.154Z,1.76
2023-04-25T00:56:59.100Z,1.75
2023-04-25T00:57:59.036Z,1.73
2023-04-25T00:58:58.989Z,1.74
2023-04-25T00:59:58.940Z,1.73
2023-04-25T01:00:58.947Z,1.74
2023-04-25T01:01:58.877Z,1.75
2023-04-25T01:02:58.922Z,1.73
2023-04-25T01:03:58.796Z,1.75
2023-04-25T01:04:58.722Z,1.73
2023-04-25T01:05:58.673Z,1.75
2023-04-25T01:06:58.621Z,1.72
2023-04-25T01:07:58.563Z,1.72
2023-04-25T01:08:58.513Z,1.76
2023-04-25T01:09:58.476Z,1.72
2023-04-25T01:10:58.436Z,1.71
2023-04-25T01:11:58.384Z,1.72
2023-04-25T01:12:58.333Z,1.73
2023-04-25T01:13:58.281Z,1.68
2023-04-25T01:14:58.226Z,1.71
2023-04-25T01:15:58.172Z,1.72
2023-04-25T01:16:58.216Z,1.72
2023-04-25T01:17:58.105Z,1.72
2023-04-25T01:18:58.020Z,1.72
2023-04-25T01:19:57.964Z,1.70
2023-04-25T01:20:57.937Z,1.68
2023-04-25T01:21:57.901Z,1.71
2023-04-25T01:22:57.850Z,1.70
2023-04-25T01:23:57.813Z,1.69
2023-04-25T01:24:57.850Z,1.68
2023-04-25T01:25:57.748Z,1.69
2023-04-25T01:26:57.699Z,1.66
2023-04-25T01:27:57.632Z,1.67
2023-04-25T01:28:57.573Z,1.68
2023-04-25T01:29:57.532Z,1.66
2023-04-25T01:30:57.474Z,1.67
2023-04-25T01:31:57.540Z,1.67
2023-04-25T01:32:57.559Z,1.66
2023-04-25T01:33:57.387Z,1.65
2023-04-25T01:34:57.256Z,1.66
2023-04-25T01:35:57.209Z,1.67
2023-04-25T01:36:57.155Z,1.65
2023-04-25T01:37:57.090Z,1.66
2023-04-25T01:38:57.038Z,1.64
2023-04-25T01:39:56.984Z,1.65
2023-04-25T01:40:56.954Z,1.65
2023-04-25T01:41:57.664Z,1.67
2023-04-25T01:42:56.834Z,1.66
2023-04-25T01:43:56.780Z,1.66
2023-04-25T01:44:56.724Z,1.65
2023-04-25T01:45:56.697Z,1.65
2023-04-25T01:46:56.640Z,1.65
2023-04-25T01:47:56.567Z,1.62
2023-04-25T01:48:56.504Z,1.64
2023-04-25T01:49:56.453Z,1.61
2023-04-25T01:50:56.403Z,1.61
2023-04-25T01:51:56.337Z,1.61
2023-04-25T01:52:56.289Z,1.61
2023-04-25T01:53:56.228Z,1.63
2023-04-25T01:54:56.169Z,1.60
2023-04-25T01:55:56.110Z,1.61
2023-04-25T01:56:56.062Z,1.63
2023-04-25T01:57:55.994Z,1.62
2023-04-25T01:58:55.932Z,1.61
2023-04-25T01:59:55.883Z,1.58
2023-04-25T02:00:55.829Z,1.59
2023-04-25T02:01:55.845Z,1.59
2023-04-25T02:02:55.829Z,1.56
2023-04-25T02:03:56.139Z,1.58
2023-04-25T02:04:55.618Z,1.57
2023-04-25T02:05:55.566Z,1.57
2023-04-25T02:06:55.507Z,1.55
2023-04-25T02:07:55.633Z,1.59
2023-04-25T02:08:55.409Z,1.59
2023-04-25T02:09:55.338Z,1.57
2023-04-25T02:10:55.282Z,1.58
2023-04-25T02:11:55.228Z,1.58
2023-04-25T02:12:55.176Z,1.53
2023-04-25T02:13:55.121Z,1.57
2023-04-25T02:14:55.067Z,1.57
2023-04-25T02:15:55.087Z,1.56
2023-04-25T02:16:55.020Z,1.51
2023-04-25T02:17:54.927Z,1.54
2023-04-25T02:18:54.848Z,1.57
2023-04-25T02:19:54.786Z,1.56
2023-04-25T02:20:54.721Z,1.56
2023-04-25T02:21:54.670Z,1.54
2023-04-25T02:22:54.617Z,1.53
2023-04-25T02:23:54.550Z,1.54
2023-04-25T02:24:54.490Z,1.54
2023-04-25T02:25:54.423Z,1.52
2023-04-25T02:26:54.390Z,1.53
2023-04-25T02:27:54.317Z,1.52
2023-04-25T02:28:54.265Z,1.54
2023-04-25T02:29:54.195Z,1.54
2023-04-25T02:30:54.179Z,1.52
2023-04-25T02:31:54.194Z,1.52
2023-04-25T02:32:54.045Z,1.51
2023-04-25T02:33:53.965Z,1.49
2023-04-25T02:34:53.915Z,1.53
2023-04-25T02:35:53.846Z,1.52
2023-04-25T02:36:53.797Z,1.49
2023-04-25T02:37:53.900Z,1.51
2023-04-25T02:38:53.678Z,1.48
2023-04-25T02:39:53.603Z,1.49
2023-04-25T02:40:53.570Z,1.48
2023-04-25T02:41:53.495Z,1.48
2023-04-25T02:42:53.436Z,1.51
2023-04-25T02:43:53.548Z,1.49
2023-04-25T02:44:53.308Z,1.47
2023-04-25T02:45:53.248Z,1.47
2023-04-25T02:46:53.279Z,1.48
2023-04-25T02:47:53.244Z,1.48
2023-04-25T02:48:53.091Z,1.46
2023-04-25T02:49:53.033Z,1.46
2023-04-25T02:50:52.976Z,1.47
2023-04-25T02:51:52.921Z,1.44
2023-04-25T02:52:52.860Z,1.44
2023-04-25T02:53:53.065Z,1.46
2023-04-25T02:54:52.756Z,1.46
2023-04-25T02:55:52.696Z,1.44
2023-04-25T02:56:52.630Z,1.43
2023-04-25T02:57:52.594Z,1.44
2023-04-25T02:58:52.528Z,1.45
2023-04-25T02:59:52.478Z,1.43
2023-04-25T03:00:52.470Z,1.43
2023-04-25T03:01:52.362Z,1.43
2023-04-25T03:02:52.368Z,1.42
2023-04-25T03:03:52.581Z,1.42
2023-04-25T03:04:52.202Z,1.43
2023-04-25T03:05:52.142Z,1.43
2023-04-25T03:06:52.254Z,1.38
2023-04-25T03:07:52.038Z,1.40
2023-04-25T03:08:51.977Z,1.40
2023-04-25T03:09:51.926Z,1.40
2023-04-25T03:10:51.844Z,1.41
2023-04-25T03:11:51.770Z,1.40
2023-04-25T03:12:51.703Z,1.40
2023-04-25T03:13:51.970Z,1.40
2023-04-25T03:14:51.581Z,1.41
2023-04-25T03:15:51.516Z,1.38
2023-04-25T03:16:51.482Z,1.37
2023-04-25T03:17:51.401Z,1.41
2023-04-25T03:18:51.296Z,1.42
2023-04-25T03:19:51.237Z,1.40
2023-04-25T03:20:51.166Z,1.40
2023-04-25T03:21:51.105Z,1.37
2023-04-25T03:22:51.032Z,1.37
2023-04-25T03:23:51.194Z,1.39
2023-04-25T03:24:50.900Z,1.35
2023-04-25T03:25:50.820Z,1.36
2023-04-25T03:26:50.747Z,1.36
2023-04-25T03:27:50.696Z,1.37
2023-04-25T03:28:50.607Z,1.34
2023-04-25T03:29:50.520Z,1.34
2023-04-25T03:30:50.444Z,1.37
2023-04-25T03:31:50.437Z,1.35
2023-04-25T03:32:50.314Z,1.33
2023-04-25T03:33:50.434Z,1.35
2023-04-25T03:34:50.136Z,1.35
2023-04-25T03:35:50.230Z,1.35
2023-04-25T03:36:49.998Z,1.33
2023-04-25T03:37:49.952Z,1.34
2023-04-25T03:38:49.871Z,1.32
2023-04-25T03:39:49.800Z,1.31
2023-04-25T03:40:49.732Z,1.33
2023-04-25T03:41:49.655Z,1.30
2023-04-25T03:42:49.599Z,1.31
2023-04-25T03:43:49.675Z,1.33
2023-04-25T03:44:49.462Z,1.30
2023-04-25T03:45:49.455Z,1.32
2023-04-25T03:46:49.340Z,1.30
2023-04-25T03:47:49.329Z,1.30
2023-04-25T03:48:49.221Z,1.31
2023-04-25T03:49:49.140Z,1.30
2023-04-25T03:50:49.069Z,1.29
2023-04-25T03:51:48.990Z,1.30
2023-04-25T03:52:48.933Z,1.31
2023-04-25T03:53:49.265Z,1.30
2023-04-25T03:54:48.800Z,1.30
2023-04-25T03:55:48.733Z,1.30
2023-04-25T03:56:48.672Z,1.29
2023-04-25T03:57:48.613Z,1.27
2023-04-25T03:58:48.533Z,1.29
2023-04-25T03:59:48.505Z,1.29
2023-04-25T04:00:48.405Z,1.29
2023-04-25T04:01:48.339Z,1.28
2023-04-25T04:02:48.324Z,1.29
2023-04-25T04:03:48.372Z,1.27
2023-04-25T04:04:48.571Z,1.27
2023-04-25T04:05:48.161Z,1.30
2023-04-25T04:06:47.998Z,1.26
2023-04-25T04:07:47.930Z,1.25
2023-04-25T04:08:47.864Z,1.28
2023-04-25T04:09:47.802Z,1.27
2023-04-25T04:10:47.736Z,1.27
2023-04-25T04:11:47.654Z,1.25
2023-04-25T04:12:47.585Z,1.26
2023-04-25T04:13:47.613Z,1.24
2023-04-25T04:14:47.455Z,1.24
2023-04-25T04:15:47.441Z,1.26
2023-04-25T04:16:47.310Z,1.26
2023-04-25T04:17:47.308Z,1.24
2023-04-25T04:18:47.189Z,1.24
2023-04-25T04:19:47.104Z,1.23
2023-04-25T04:20:47.032Z,1.24
2023-04-25T04:21:46.975Z,1.25
2023-04-25T04:22:46.909Z,1.24
2023-04-25T04:23:46.838Z,1.22
2023-04-25T04:24:46.764Z,1.24
2023-04-25T04:25:46.705Z,1.23
2023-04-25T04:26:46.630Z,1.22
2023-04-25T04:27:46.565Z,1.24
2023-04-25T04:28:46.500Z,1.20
2023-04-25T04:29:46.421Z,1.22
2023-04-25T04:30:46.356Z,1.21
2023-04-25T04:31:46.338Z,1.22
2023-04-25T04:32:47.442Z,1.22
2023-04-25T04:33:46.370Z,1.20
2023-04-25T04:34:46.310Z,1.22
2023-04-25T04:35:46.234Z,1.21
2023-04-25T04:36:46.162Z,1.20
2023-04-25T04:37:46.083Z,1.20
2023-04-25T04:38:46.025Z,1.19
2023-04-25T04:39:45.970Z,1.20
2023-04-25T04:40:45.877Z,1.18
2023-04-25T04:41:45.817Z,1.19
2023-04-25T04:42:45.739Z,1.20
2023-04-25T04:43:45.661Z,1.19
2023-04-25T04:44:45.608Z,1.19
2023-04-25T04:45:45.648Z,1.18
2023-04-25T04:46:45.523Z,1.19
2023-04-25T04:47:45.439Z,1.20
2023-04-25T04:48:45.319Z,1.18
2023-04-25T04:49:45.252Z,1.17
2023-04-25T04:50:45.167Z,1.17
2023-04-25T04:51:45.961Z,1.18
2023-04-25T04:52:45.020Z,1.17
2023-04-25T04:53:44.941Z,1.16
2023-04-25T04:54:44.890Z,1.17
2023-04-25T04:55:44.808Z,1.18
2023-04-25T04:56:44.734Z,1.16
2023-04-25T04:57:44.674Z,1.13
2023-04-25T04:58:44.681Z,1.15
2023-04-25T04:59:44.641Z,1.16
2023-04-25T05:00:44.458Z,1.15
2023-04-25T05:01:44.384Z,1.14
2023-04-25T05:02:44.433Z,1.14
2023-04-25T05:03:44.364Z,1.14
2023-04-25T05:04:44.289Z,1.13
2023-04-25T05:05:44.079Z,1.13
2023-04-25T05:06:43.997Z,1.13
2023-04-25T05:07:43.929Z,1.12
2023-04-25T05:08:43.848Z,1.11
2023-04-25T05:09:43.770Z,1.12
2023-04-25T05:10:43.690Z,1.13
2023-04-25T05:11:43.613Z,1.12
2023-04-25T05:12:43.552Z,1.12
2023-04-25T05:13:43.480Z,1.12
2023-04-25T05:14:43.399Z,1.14
2023-04-25T05:15:43.332Z,1.11
2023-04-25T05:16:43.274Z,1.11
2023-04-25T05:17:43.228Z,1.11
2023-04-25T05:18:43.096Z,1.13
2023-04-25T05:19:43.027Z,1.13
2023-04-25T05:20:42.945Z,1.11
2023-04-25T05:21:42.882Z,1.14
2023-04-25T05:22:42.803Z,1.14
2023-04-25T05:23:42.728Z,1.13
2023-04-25T05:24:42.653Z,1.13
2023-04-25T05:25:42.584Z,1.15
2023-04-25T05:26:42.493Z,1.15
2023-04-25T05:27:42.437Z,1.15
2023-04-25T05:28:42.352Z,1.19
2023-04-25T05:29:42.275Z,1.20
2023-04-25T05:30:42.238Z,1.23
2023-04-25T05:31:42.182Z,1.26
2023-04-25T05:32:42.131Z,1.29
2023-04-25T05:33:42.018Z,1.30
2023-04-25T05:34:42.520Z,1.32
2023-04-25T05:35:41.872Z,1.34
2023-04-25T05:36:41.790Z,1.35
2023-04-25T05:37:41.720Z,1.33
2023-04-25T05:38:41.632Z,1.33
2023-04-25T05:39:41.565Z,1.36
2023-04-25T05:40:41.522Z,1.34
2023-04-25T05:41:41.437Z,1.37
2023-04-25T05:42:41.359Z,1.37
2023-04-25T05:43:41.284Z,1.36
2023-04-25T05:44:41.233Z,1.38
2023-04-25T05:45:41.177Z,1.37
2023-04-25T05:46:41.064Z,1.35
2023-04-25T05:47:41.046Z,1.35
2023-04-25T05:48:40.897Z,1.37
2023-04-25T05:49:40.862Z,1.38
2023-04-25T05:50:40.743Z,1.39
2023-04-25T05:51:40.655Z,1.35
2023-04-25T05:52:40.590Z,1.36
2023-04-25T05:53:40.507Z,1.35
2023-04-25T05:54:40.430Z,1.37
2023-04-25T05:55:40.355Z,1.37
2023-04-25T05:56:40.271Z,1.36
2023-04-25T05:57:40.179Z,1.34
2023-04-25T05:58:40.104Z,1.35
2023-04-25T05:59:40.013Z,1.33
2023-04-25T06:00:39.928Z,1.31
2023-04-25T06:01:39.853Z,1.34
2023-04-25T06:02:39.888Z,1.31
2023-04-25T06:03:39.965Z,1.32
2023-04-25T06:04:39.782Z,1.31
2023-04-25T06:05:39.559Z,1.30
2023-04-25T06:06:39.455Z,1.30
2023-04-25T06:07:39.374Z,1.30
2023-04-25T06:08:39.288Z,1.31
2023-04-25T06:09:39.218Z,1.30
2023-04-25T06:10:39.144Z,1.30
2023-04-25T06:11:39.055Z,1.31
2023-04-25T06:12:38.980Z,1.30
2023-04-25T06:13:38.898Z,1.29
2023-04-25T06:14:38.830Z,1.29
2023-04-25T06:15:38.793Z,1.29
2023-04-25T06:16:38.677Z,1.27
2023-04-25T06:17:38.625Z,1.25
2023-04-25T06:18:38.534Z,1.29
2023-04-25T06:19:38.439Z,1.28
2023-04-25T06:20:38.368Z,1.31
2023-04-25T06:21:38.321Z,1.28
2023-04-25T06:22:38.240Z,1.27
2023-04-25T06:23:38.151Z,1.26
2023-04-25T06:24:38.074Z,1.25
2023-04-25T06:25:38.026Z,1.23
2023-04-25T06:26:37.998Z,1.46
2023-04-25T06:27:37.898Z,1.52
2023-04-25T06:28:37.864Z,1.53
2023-04-25T06:29:37.726Z,1.36
2023-04-25T06:30:37.664Z,0.55
2023-04-25T06:31:37.630Z,0.35
2023-04-25T06:32:37.571Z,0.34
2023-04-25T06:33:37.478Z,0.34
2023-04-25T06:34:37.423Z,0.34
2023-04-25T06:35:37.377Z,0.34
2023-04-25T06:36:37.340Z,0.34
2023-04-25T06:37:37.299Z,0.40
2023-04-25T06:38:37.265Z,0.51
2023-04-25T06:39:38.765Z,0.58
2023-04-25T06:40:37.142Z,0.66
2023-04-25T06:41:37.048Z,0.73
2023-04-25T06:42:36.963Z,0.84
2023-04-25T06:43:36.871Z,0.94
2023-04-25T06:44:36.761Z,1.05
2023-04-25T06:45:36.668Z,1.13
2023-04-25T06:46:36.593Z,1.28
2023-04-25T06:47:36.516Z,1.45
2023-04-25T06:48:36.384Z,1.53
2023-04-25T06:49:36.289Z,1.75
2023-04-25T06:50:36.182Z,1.90
2023-04-25T06:51:36.092Z,1.91
2023-04-25T06:52:36.001Z,2.28
2023-04-25T06:53:35.898Z,2.41
2023-04-25T06:54:35.784Z,2.48
2023-04-25T06:55:35.686Z,2.39
2023-04-25T06:56:35.593Z,2.18
2023-04-25T06:57:35.490Z,2.28
2023-04-25T06:58:35.397Z,2.40
2023-04-25T06:59:35.301Z,2.62
2023-04-25T07:00:35.224Z,5.39
2023-04-25T07:01:35.114Z,4.46
2023-04-25T07:02:35.095Z,4.16
2023-04-25T07:03:35.100Z,4.07
2023-04-25T07:04:34.938Z,4.26
2023-04-25T07:05:34.776Z,4.39
2023-04-25T07:06:34.621Z,4.52
2023-04-25T07:07:34.531Z,4.75
2023-04-25T07:08:34.427Z,4.99
2023-04-25T07:09:34.322Z,5.21
2023-04-25T07:10:34.223Z,5.46
2023-04-25T07:11:34.120Z,5.74
2023-04-25T07:12:34.010Z,6.67
2023-04-25T07:13:33.914Z,6.99
2023-04-25T07:14:33.810Z,7.32
2023-04-25T07:15:33.703Z,7.66
2023-04-25T07:16:33.654Z,7.95
2023-04-25T07:17:33.561Z,8.46
2023-04-25T07:18:33.435Z,8.81
2023-04-25T07:19:33.313Z,9.05
2023-04-25T07:20:33.217Z,9.18
2023-04-25T07:21:33.123Z,9.44
2023-04-25T07:22:33.025Z,9.62
2023-04-25T07:23:32.933Z,9.83
2023-04-25T07:24:32.824Z,10.06
2023-04-25T07:25:32.734Z,10.10
2023-04-25T07:26:32.633Z,10.24
2023-04-25T07:27:33.507Z,10.26
2023-04-25T07:28:32.528Z,10.38
2023-04-25T07:29:32.666Z,10.52
2023-04-25T07:30:32.476Z,10.45
2023-04-25T07:31:32.475Z,10.59
2023-04-25T07:32:32.383Z,10.61
2023-04-25T07:33:32.304Z,10.67
2023-04-25T07:34:32.250Z,10.56
2023-04-25T07:35:32.226Z,10.65
2023-04-25T07:36:32.181Z,10.69
2023-04-25T07:37:32.153Z,10.72
2023-04-25T07:38:32.138Z,10.67
2023-04-25T07:39:32.057Z,10.59
2023-04-25T07:40:31.958Z,10.66
2023-04-25T07:41:31.889Z,10.50
2023-04-25T07:42:31.802Z,10.47
2023-04-25T07:43:31.711Z,10.45
2023-04-25T07:44:31.608Z,10.42
2023-04-25T07:45:31.638Z,10.30
2023-04-25T07:46:31.701Z,10.16
2023-04-25T07:47:31.592Z,10.21
2023-04-25T07:48:31.460Z,10.01
2023-04-25T07:49:31.377Z,10.10
2023-04-25T07:50:31.311Z,9.98
2023-04-25T07:51:31.240Z,9.97
2023-04-25T07:52:31.148Z,9.84
2023-04-25T07:53:31.129Z,9.71
2023-04-25T07:54:31.026Z,9.69
2023-04-25T07:55:30.933Z,9.64
2023-04-25T07:56:41.574Z,9.52
2023-04-25T07:57:31.728Z,9.54
2023-04-25T07:58:30.801Z,9.57
2023-04-25T07:59:30.556Z,9.55
2023-04-25T08:00:30.437Z,9.51
2023-04-25T08:01:30.343Z,9.33
2023-04-25T08:02:30.322Z,9.47
2023-04-25T08:03:30.318Z,9.26
2023-04-25T08:04:30.204Z,9.18
2023-04-25T08:05:30.087Z,9.16
2023-04-25T08:06:30.078Z,9.10
2023-04-25T08:07:29.934Z,9.12
2023-04-25T08:08:29.942Z,9.17
2023-04-25T08:09:29.851Z,9.02
2023-04-25T08:10:29.746Z,9.01
2023-04-25T08:11:29.665Z,8.91
2023-04-25T08:12:29.576Z,8.76
2023-04-25T08:13:29.487Z,6.45
2023-04-25T08:14:30.365Z,3.30
2023-04-25T08:15:29.271Z,2.33
2023-04-25T08:16:29.234Z,1.49
2023-04-25T08:17:29.071Z,1.03
2023-04-25T08:18:29.011Z,0.83
2023-04-25T08:19:28.876Z,0.76
2023-04-25T08:20:28.787Z,0.62
2023-04-25T08:21:28.716Z,0.48
2023-04-25T08:22:28.623Z,0.56
2023-04-25T08:23:28.525Z,0.64
2023-04-25T08:24:28.500Z,0.70
2023-04-25T08:25:28.344Z,0.87
2023-04-25T08:26:28.454Z,1.17
2023-04-25T08:27:28.318Z,1.43
2023-04-25T08:28:28.063Z,1.59
2023-04-25T08:29:27.972Z,1.85
2023-04-25T08:30:27.875Z,2.12
2023-04-25T08:31:27.871Z,2.33
2023-04-25T08:32:29.600Z,2.51
2023-04-25T08:33:29.466Z,2.74
2023-04-25T08:34:27.493Z,2.75
2023-04-25T08:35:27.395Z,2.82
2023-04-25T08:36:38.420Z,3.02
2023-04-25T08:37:28.193Z,2.78
2023-04-25T08:38:27.095Z,2.91
2023-04-25T08:39:26.985Z,3.22
2023-04-25T08:40:26.888Z,3.78
2023-04-25T08:41:26.792Z,4.81
2023-04-25T08:42:26.677Z,5.04
2023-04-25T08:43:26.635Z,5.36
2023-04-25T08:44:26.485Z,5.63
2023-04-25T08:45:26.378Z,5.96
2023-04-25T08:46:26.328Z,6.31
2023-04-25T08:47:26.249Z,6.59
2023-04-25T08:48:26.074Z,6.94
2023-04-25T08:49:25.970Z,7.29
2023-04-25T08:50:25.865Z,7.59
2023-04-25T08:51:25.803Z,7.80
2023-04-25T08:52:25.685Z,8.17
2023-04-25T08:53:26.135Z,8.57
2023-04-25T08:54:35.571Z,8.62
2023-04-25T08:55:26.326Z,8.65
2023-04-25T08:56:25.402Z,8.79
2023-04-25T08:57:25.113Z,9.03
2023-04-25T08:58:25.016Z,9.65
2023-04-25T08:59:24.905Z,10.40
2023-04-25T09:00:24.793Z,10.93
2023-04-25T09:01:24.731Z,11.08
2023-04-25T09:02:24.594Z,11.21
2023-04-25T09:03:24.585Z,11.48
2023-04-25T09:04:24.417Z,11.96
2023-04-25T09:05:24.237Z,12.37
2023-04-25T09:06:24.179Z,12.55
2023-04-25T09:07:24.112Z,12.78
2023-04-25T09:08:24.062Z,12.97
2023-04-25T09:09:23.998Z,13.16
2023-04-25T09:10:23.943Z,13.28
2023-04-25T09:11:23.879Z,13.41
2023-04-25T09:12:23.824Z,13.73
2023-04-25T09:13:23.773Z,14.04
2023-04-25T09:14:23.729Z,14.20
2023-04-25T09:15:23.665Z,14.51
2023-04-25T09:16:23.658Z,14.34
2023-04-25T09:17:23.605Z,14.48
2023-04-25T09:18:29.955Z,14.27
2023-04-25T09:19:38.153Z,14.28
2023-04-25T09:20:24.326Z,14.31
2023-04-25T09:21:23.217Z,14.35
2023-04-25T09:22:23.109Z,14.30
2023-04-25T09:23:22.994Z,14.21
2023-04-25T09:24:22.885Z,14.33
2023-04-25T09:25:22.769Z,13.87
2023-04-25T09:26:22.816Z,13.95
2023-04-25T09:27:22.551Z,13.82
2023-04-25T09:28:22.441Z,13.73
2023-04-25T09:29:22.335Z,13.81
2023-04-25T09:30:22.227Z,13.80
2023-04-25T09:31:22.178Z,13.78
2023-04-25T09:32:22.094Z,13.21
2023-04-25T09:33:22.549Z,13.49
2023-04-25T09:34:21.806Z,13.46
2023-04-25T09:35:21.726Z,13.66
2023-04-25T09:36:21.621Z,13.03
2023-04-25T09:37:21.499Z,12.99
2023-04-25T09:38:21.383Z,13.12
2023-04-25T09:39:21.292Z,12.91
2023-04-25T09:40:21.185Z,12.73
2023-04-25T09:41:21.080Z,12.74
2023-04-25T09:42:20.960Z,12.47
2023-04-25T09:43:20.854Z,12.34
2023-04-25T09:44:20.809Z,12.16
2023-04-25T09:45:20.670Z,12.23
2023-04-25T09:46:20.570Z,12.11
2023-04-25T09:47:20.461Z,11.88
2023-04-25T09:48:20.342Z,12.16
2023-04-25T09:49:20.220Z,11.57
2023-04-25T09:50:20.148Z,11.49
2023-04-25T09:51:20.016Z,11.36
2023-04-25T09:52:19.976Z,11.38
2023-04-25T09:53:19.810Z,11.06
2023-04-25T09:54:19.859Z,11.17
2023-04-25T09:55:19.590Z,11.13
2023-04-25T09:56:19.507Z,11.02
2023-04-25T09:57:19.386Z,10.91
2023-04-25T09:58:19.283Z,10.90
2023-04-25T09:59:19.158Z,10.68
2023-04-25T10:00:19.056Z,10.31
2023-04-25T10:01:18.975Z,10.10
2023-04-25T10:02:18.851Z,10.13
2023-04-25T10:03:18.790Z,10.10
2023-04-25T10:04:18.725Z,9.93
2023-04-25T10:05:18.689Z,9.72
2023-04-25T10:06:18.641Z,9.71
2023-04-25T10:07:18.351Z,9.46
2023-04-25T10:08:18.275Z,9.36
2023-04-25T10:09:18.158Z,9.25
2023-04-25T10:10:18.029Z,9.41
2023-04-25T10:11:17.922Z,9.29
2023-04-25T10:12:17.820Z,9.37
2023-04-25T10:13:17.715Z,9.19
2023-04-25T10:14:17.623Z,9.16
2023-04-25T10:15:17.514Z,9.18
2023-04-25T10:16:17.486Z,9.11
2023-04-25T10:17:17.302Z,8.88
2023-04-25T10:18:17.195Z,8.94
2023-04-25T10:19:17.095Z,8.67
2023-04-25T10:20:17.057Z,2.92
2023-04-25T10:21:16.945Z,1.46
2023-04-25T10:22:16.903Z,0.67
2023-04-25T10:23:16.902Z,0.52
2023-04-25T10:24:17.249Z,0.49
2023-04-25T10:25:16.733Z,0.46
2023-04-25T10:26:16.671Z,0.54
2023-04-25T10:27:16.615Z,0.58
2023-04-25T10:28:16.542Z,0.65
2023-04-25T10:29:16.463Z,0.69
2023-04-25T10:30:16.858Z,0.73
2023-04-25T10:31:16.424Z,0.81
2023-04-25T10:32:16.312Z,0.90
2023-04-25T10:33:17.017Z,0.97
2023-04-25T10:34:16.148Z,1.01
2023-04-25T10:35:16.136Z,1.07
2023-04-25T10:36:16.078Z,1.09
2023-04-25T10:37:16.025Z,1.11
2023-04-25T10:38:15.994Z,1.13
2023-04-25T10:39:15.963Z,1.18
2023-04-25T10:40:15.935Z,1.23
2023-04-25T10:41:15.895Z,1.29
2023-04-25T10:42:15.857Z,1.31
2023-04-25T10:43:15.823Z,1.35
2023-04-25T10:44:15.797Z,1.40
2023-04-25T10:45:15.757Z,1.44
2023-04-25T10:46:15.752Z,1.46
2023-04-25T10:47:15.697Z,1.48
2023-04-25T10:48:15.641Z,1.51
2023-04-25T10:49:16.260Z,1.57
2023-04-25T10:50:15.570Z,1.59
2023-04-25T10:51:15.530Z,1.63
2023-04-25T10:52:15.504Z,1.65
2023-04-25T10:53:15.453Z,1.68
2023-04-25T10:54:15.403Z,1.70
2023-04-25T10:55:15.354Z,1.74
2023-04-25T10:56:15.305Z,1.75
2023-04-25T10:57:15.259Z,1.76
2023-04-25T10:58:15.245Z,1.79
2023-04-25T10:59:15.177Z,1.83
2023-04-25T11:00:15.192Z,1.87
2023-04-25T11:01:15.115Z,1.89
2023-04-25T11:02:15.197Z,1.94
2023-04-25T11:03:15.175Z,1.98
2023-04-25T11:04:15.062Z,2.03
2023-04-25T11:05:14.887Z,2.03
2023-04-25T11:06:14.851Z,2.07
2023-04-25T11:07:14.818Z,2.10
2023-04-25T11:08:14.752Z,2.16
2023-04-25T11:09:14.707Z,2.19
2023-04-25T11:10:14.680Z,2.23
2023-04-25T11:11:14.630Z,2.23
2023-04-25T11:12:14.586Z,2.28
2023-04-25T11:13:14.542Z,2.31
2023-04-25T11:14:14.494Z,2.35
2023-04-25T11:15:14.447Z,2.38
2023-04-25T11:16:23.628Z,2.42
2023-04-25T11:17:15.451Z,2.42
2023-04-25T11:18:14.283Z,2.43
2023-04-25T11:19:14.089Z,2.45
2023-04-25T11:20:13.984Z,2.50
2023-04-25T11:21:13.890Z,2.58
2023-04-25T11:22:13.802Z,2.61
2023-04-25T11:23:13.702Z,2.62
2023-04-25T11:24:13.595Z,2.66
2023-04-25T11:25:13.496Z,2.67
2023-04-25T11:26:13.386Z,2.68
2023-04-25T11:27:13.303Z,2.71
2023-04-25T11:28:13.299Z,2.73
2023-04-25T11:29:13.181Z,2.74
2023-04-25T11:30:13.152Z,2.76
2023-04-25T11:31:13.095Z,2.77
2023-04-25T11:32:13.115Z,2.76
2023-04-25T11:33:13.042Z,2.79
2023-04-25T11:34:12.976Z,2.81
2023-04-25T11:35:13.026Z,2.82
2023-04-25T11:36:12.907Z,2.82
2023-04-25T11:37:12.861Z,2.84
2023-04-25T11:38:12.805Z,2.85
2023-04-25T11:39:12.768Z,2.87
2023-04-25T11:40:12.957Z,2.88
2023-04-25T11:41:12.695Z,2.91
2023-04-25T11:42:13.877Z,2.92
2023-04-25T11:43:12.630Z,2.94
2023-04-25T11:44:12.645Z,2.96
2023-04-25T11:45:12.561Z,2.97
2023-04-25T11:46:12.599Z,3.00
2023-04-25T11:47:12.490Z,2.97
2023-04-25T11:48:12.472Z,3.02
2023-04-25T11:49:12.412Z,3.02
2023-04-25T11:50:12.447Z,3.03
2023-04-25T11:51:12.333Z,3.02
2023-04-25T11:52:12.336Z,3.03
2023-04-25T11:53:12.253Z,3.03
2023-04-25T11:54:12.222Z,3.06
2023-04-25T11:55:12.190Z,3.05
2023-04-25T11:56:12.148Z,3.08
2023-04-25T11:57:12.120Z,3.04
2023-04-25T11:58:12.077Z,3.05
2023-04-25T11:59:12.652Z,3.07
2023-04-25T12:00:12.056Z,3.07
2023-04-25T12:01:11.975Z,3.10
2023-04-25T12:02:11.985Z,3.08
2023-04-25T12:03:11.980Z,3.10
2023-04-25T12:04:12.052Z,3.12
2023-04-25T12:05:30.472Z,3.11
2023-04-25T12:06:12.868Z,3.11
2023-04-25T12:07:11.617Z,3.12
2023-04-25T12:08:11.519Z,3.14
2023-04-25T12:09:11.428Z,3.16
2023-04-25T12:10:11.475Z,3.18
2023-04-25T12:11:11.221Z,3.16
2023-04-25T12:12:11.126Z,3.16
2023-04-25T12:13:11.019Z,3.15
2023-04-25T12:14:10.921Z,3.17
2023-04-25T12:15:10.830Z,3.15
2023-04-25T12:16:10.867Z,3.11
2023-04-25T12:17:10.715Z,3.08
2023-04-25T12:18:10.678Z,3.09
2023-04-25T12:19:10.636Z,3.12
2023-04-25T12:20:10.639Z,3.07
2023-04-25T12:21:10.544Z,3.02
2023-04-25T12:22:10.518Z,3.05
2023-04-25T12:23:10.475Z,3.06
2023-04-25T12:24:10.422Z,3.05
2023-04-25T12:25:10.400Z,3.04
2023-04-25T12:26:10.342Z,3.03
2023-04-25T12:27:10.310Z,3.00
2023-04-25T12:28:10.226Z,2.94
2023-04-25T12:29:10.199Z,2.97
2023-04-25T12:30:10.151Z,2.97
2023-04-25T12:31:10.117Z,2.94
2023-04-25T12:32:10.050Z,2.92
2023-04-25T12:33:10.120Z,2.92
2023-04-25T12:34:09.994Z,2.93
2023-04-25T12:35:09.961Z,2.90
2023-04-25T12:36:10.050Z,2.86
2023-04-25T12:37:09.854Z,2.85
2023-04-25T12:38:09.797Z,2.79
2023-04-25T12:39:09.736Z,2.85
2023-04-25T12:40:09.763Z,2.84
2023-04-25T12:41:09.571Z,2.82
2023-04-25T12:42:09.992Z,2.79
2023-04-25T12:43:09.443Z,2.79
2023-04-25T12:44:09.392Z,2.75
2023-04-25T12:45:09.365Z,2.83
2023-04-25T12:46:09.412Z,2.87
2023-04-25T12:47:09.402Z,2.77
2023-04-25T12:48:09.331Z,2.73
2023-04-25T12:49:18.582Z,2.71
2023-04-25T12:50:10.121Z,2.71
2023-04-25T12:51:09.009Z,2.72
2023-04-25T12:52:08.913Z,2.71
2023-04-25T12:53:08.818Z,2.73
2023-04-25T12:54:08.718Z,2.75
2023-04-25T12:55:08.622Z,2.67
2023-04-25T12:56:08.523Z,2.65
2023-04-25T12:57:08.421Z,2.61
2023-04-25T12:58:08.322Z,2.60
2023-04-25T12:59:08.263Z,2.59
2023-04-25T13:00:08.248Z,2.61
2023-04-25T13:01:08.252Z,2.59
2023-04-25T13:02:08.278Z,2.60
2023-04-25T13:03:08.326Z,2.59
2023-04-25T13:04:08.275Z,2.54
2023-04-25T13:05:08.114Z,2.56
2023-04-25T13:06:08.079Z,2.63
2023-04-25T13:07:08.042Z,2.59
2023-04-25T13:08:07.965Z,2.63
2023-04-25T13:09:07.912Z,2.60
2023-04-25T13:10:07.893Z,2.60
2023-04-25T13:11:07.813Z,2.59
2023-04-25T13:12:07.790Z,2.61
2023-04-25T13:13:07.794Z,2.60
2023-04-25T13:14:07.685Z,2.61